Time;durP1;ratioP1;P1;durP2;ratioP2;P2;SDS_P1;SDS_P2;PMS_P1;PMS_P2;Temp;Humidity;BMP_temperature;BMP_pressure;BME280_temperature;BME280_humidity;BME280_pressure;Samples;Min_cycle;Max_cycle;Signal;HPM_P1;HPM_P2
2021/12/23 00:01:19;;;;;;;;;56.67;43.33;;;;;5.79;61.20;101375.28;5061015;28;61825;-73
2021/12/23 00:03:44;;;;;;;;;64.33;46.00;;;;;5.81;61.45;101372.81;5079118;28;61992;-73
2021/12/23 00:06:10;;;;;;;;;62.00;46.00;;;;;5.78;61.12;101377.78;5065238;28;62248;-73
2021/12/23 00:08:35;;;;;;;;;67.00;45.33;;;;;5.75;61.29;101373.25;5064506;28;63353;-73
2021/12/23 00:11:01;;;;;;;;;74.00;48.00;;;;;5.74;61.36;101372.34;5065160;28;61947;-73
2021/12/23 00:13:27;;;;;;;;;62.67;47.00;;;;;5.70;61.52;101374.63;5064821;28;61825;-73
2021/12/23 00:18:42;;;;;;;;;64.00;46.67;;;;;5.65;61.61;101353.44;5064323;28;61796;-73
2021/12/23 00:23:57;;;;;;;;;56.33;43.67;;;;;5.55;61.60;101356.19;5064852;28;61970;-73
2021/12/23 00:26:23;;;;;;;;;54.00;41.67;;;;;5.53;62.07;101356.06;5064661;28;61809;-74
2021/12/23 00:28:48;;;;;;;;;69.67;47.67;;;;;5.50;62.11;101349.72;5063956;28;61770;-74
2021/12/23 00:31:15;;;;;;;;;58.33;42.33;;;;;5.51;62.38;101352.44;5064473;28;61739;-74
2021/12/23 00:33:42;;;;;;;;;57.33;46.33;;;;;5.45;62.48;101336.34;5063194;28;62007;-73
2021/12/23 00:36:09;;;;;;;;;58.00;45.00;;;;;5.42;62.48;101336.16;5065291;28;61814;-73
2021/12/23 00:38:39;;;;;;;;;63.67;46.00;;;;;5.42;62.98;101330.00;5043401;28;61769;-74
2021/12/23 00:41:05;;;;;;;;;53.33;43.00;;;;;5.41;62.50;101334.31;5044650;28;61774;-73
2021/12/23 00:43:32;;;;;;;;;57.67;45.67;;;;;5.36;62.53;101334.78;5042577;28;61735;-73
2021/12/23 00:45:58;;;;;;;;;66.67;44.00;;;;;5.34;63.00;101329.47;5044649;28;61869;-73
2021/12/23 00:48:25;;;;;;;;;59.00;43.00;;;;;5.37;62.74;101337.47;5043666;28;61813;-73
2021/12/23 00:50:51;;;;;;;;;52.67;37.33;;;;;5.38;63.01;101327.97;5044246;28;61948;-73
2021/12/23 00:53:19;;;;;;;;;61.67;42.33;;;;;5.37;63.02;101316.66;5044029;28;61871;-73
2021/12/23 00:55:54;;;;;;;;;52.67;43.00;;;;;5.37;63.26;101316.66;5044350;28;61739;-73
2021/12/23 00:58:21;;;;;;;;;71.67;46.00;;;;;5.37;63.20;101310.56;5043332;28;61817;-74
2021/12/23 01:00:47;;;;;;;;;55.67;40.00;;;;;5.36;63.69;101299.25;5044071;28;61895;-73
2021/12/23 01:03:13;;;;;;;;;64.67;49.00;;;;;5.35;63.45;101312.13;5042832;28;61960;-73
2021/12/23 01:05:39;;;;;;;;;66.33;48.00;;;;;5.34;63.59;101308.63;5044031;28;62074;-74
2021/12/23 01:08:05;;;;;;;;;57.67;46.00;;;;;5.33;63.61;101306.81;5043441;28;62085;-73
2021/12/23 01:10:31;;;;;;;;;71.33;49.00;;;;;5.32;63.58;101307.63;5043818;28;61965;-73
2021/12/23 01:13:00;;;;;;;;;64.00;44.67;;;;;5.29;64.05;101309.97;5059377;28;61968;-74
2021/12/23 01:15:50;;;;;;;;;71.00;48.00;;;;;5.30;63.84;101310.09;5042741;28;61854;-74
2021/12/23 01:18:18;;;;;;;;;58.67;41.00;;;;;5.28;63.98;101310.78;5043353;28;61952;-73
2021/12/23 01:21:02;;;;;;;;;55.67;46.67;;;;;5.31;63.86;101295.38;5043478;28;62029;-73
2021/12/23 01:23:29;;;;;;;;;69.33;45.67;;;;;5.26;64.12;101300.25;5058959;28;61791;-73
2021/12/23 01:25:54;;;;;;;;;45.33;41.00;;;;;5.34;64.01;101295.63;5043743;28;61827;-74
2021/12/23 01:28:21;;;;;;;;;62.00;48.33;;;;;5.39;63.61;101295.97;5058528;28;63773;-73
2021/12/23 01:30:46;;;;;;;;;58.33;45.67;;;;;5.30;63.81;101272.75;5043716;28;62028;-73
2021/12/23 01:33:13;;;;;;;;;58.67;43.33;;;;;5.41;63.63;101284.84;5043619;28;62844;-73
2021/12/23 01:35:39;;;;;;;;;52.33;43.00;;;;;5.41;63.78;101283.97;5054344;28;62122;-74
2021/12/23 01:38:06;;;;;;;;;65.00;46.33;;;;;5.44;63.75;101284.16;5062818;28;62083;-73
2021/12/23 01:40:32;;;;;;;;;56.67;45.00;;;;;5.47;63.86;101292.22;5063405;28;61742;-73
2021/12/23 01:42:58;;;;;;;;;65.00;46.67;;;;;5.49;64.08;101288.94;5079121;28;61734;-73
2021/12/23 01:45:27;;;;;;;;;54.00;43.00;;;;;5.55;64.15;101283.28;5063610;28;61747;-73
2021/12/23 01:47:52;;;;;;;;;72.00;43.00;;;;;5.59;63.98;101279.16;5062902;28;61843;-73
2021/12/23 01:50:24;;;;;;;;;63.67;44.67;;;;;5.57;63.86;101270.34;5063641;28;62307;-73
2021/12/23 01:52:50;;;;;;;;;49.67;44.00;;;;;5.60;63.87;101273.19;5063374;28;61730;-73
2021/12/23 01:55:15;;;;;;;;;67.00;47.33;;;;;5.64;63.67;101276.13;5063560;28;61896;-73
2021/12/23 01:57:42;;;;;;;;;64.67;47.00;;;;;5.65;63.47;101266.59;5062372;28;62930;-73
2021/12/23 02:00:12;;;;;;;;;67.00;47.67;;;;;5.64;63.77;101262.19;5063241;28;61991;-73
2021/12/23 02:02:38;;;;;;;;;61.67;46.67;;;;;5.66;63.74;101265.81;5063177;28;61887;-73
2021/12/23 02:05:04;;;;;;;;;63.00;43.67;;;;;5.67;63.63;101260.69;5063688;28;61865;-73
2021/12/23 02:07:30;;;;;;;;;69.00;50.33;;;;;5.72;63.45;101266.25;5062340;28;61932;-73
2021/12/23 02:09:56;;;;;;;;;68.33;46.00;;;;;5.76;63.37;101257.84;5061875;28;61865;-73
2021/12/23 02:12:23;;;;;;;;;51.67;37.00;;;;;5.79;63.52;101267.59;5063145;28;62150;-73
2021/12/23 02:14:49;;;;;;;;;62.67;46.33;;;;;5.74;63.44;101255.16;5063084;28;62168;-74
2021/12/23 02:17:14;;;;;;;;;65.33;46.00;;;;;5.78;63.53;101257.94;5062507;28;62770;-73
2021/12/23 02:19:40;;;;;;;;;64.00;46.67;;;;;5.81;63.41;101271.22;5062879;28;61802;-74
2021/12/23 02:22:05;;;;;;;;;59.33;40.33;;;;;5.79;63.74;101258.06;5062880;28;62476;-73
2021/12/23 02:24:31;;;;;;;;;58.67;46.33;;;;;5.85;63.52;101255.91;5063051;28;61850;-74
2021/12/23 02:26:56;;;;;;;;;57.00;45.33;;;;;5.88;63.33;101258.72;5061511;28;62007;-73
2021/12/23 02:29:21;;;;;;;;;62.00;42.33;;;;;5.92;63.15;101257.25;5062868;28;61848;-73
2021/12/23 02:31:48;;;;;;;;;59.33;42.33;;;;;5.94;63.12;101250.44;5062638;28;62355;-73
2021/12/23 02:34:15;;;;;;;;;70.33;47.33;;;;;5.91;63.17;101245.00;5061628;28;61979;-73
2021/12/23 02:36:40;;;;;;;;;54.67;46.33;;;;;5.92;63.29;101244.22;5042275;28;62795;-74
2021/12/23 02:39:05;;;;;;;;;57.33;45.00;;;;;5.93;63.12;101244.34;5042481;28;61829;-74
2021/12/23 02:41:31;;;;;;;;;67.67;43.00;;;;;5.98;63.23;101243.75;5042248;28;62587;-73
2021/12/23 02:43:56;;;;;;;;;72.00;47.00;;;;;5.98;63.37;101236.88;5057963;28;62151;-73
2021/12/23 02:46:22;;;;;;;;;55.67;42.33;;;;;6.00;63.25;101232.66;5057499;28;62679;-73
2021/12/23 02:48:47;;;;;;;;;65.33;47.33;;;;;6.01;63.21;101225.75;5057671;28;61911;-73
2021/12/23 02:51:15;;;;;;;;;56.00;42.33;;;;;6.06;63.45;101224.34;5042544;28;61916;-74
2021/12/23 02:53:43;;;;;;;;;67.00;44.67;;;;;6.04;63.42;101229.47;5042403;28;61923;-73
2021/12/23 02:56:14;;;;;;;;;67.67;50.33;;;;;6.04;63.32;101231.16;5041165;28;62658;-74
2021/12/23 02:58:39;;;;;;;;;69.33;50.00;;;;;6.04;63.42;101237.28;5042081;28;61982;-73
2021/12/23 03:01:09;;;;;;;;;71.00;50.33;;;;;6.06;63.23;101229.56;5042333;28;61865;-73
2021/12/23 03:03:34;;;;;;;;;68.67;46.33;;;;;6.05;62.98;101231.28;5057907;28;61839;-73
2021/12/23 03:06:00;;;;;;;;;77.33;51.33;;;;;6.06;63.04;101230.50;5041480;28;62027;-73
2021/12/23 03:08:44;;;;;;;;;66.67;47.33;;;;;6.07;63.26;101224.47;5041869;28;61810;-73
2021/12/23 03:11:13;;;;;;;;;56.00;48.67;;;;;6.05;62.76;101222.56;5042205;28;61837;-74
2021/12/23 03:13:39;;;;;;;;;56.33;44.00;;;;;6.06;63.40;101208.72;5042281;28;62036;-74
2021/12/23 03:16:06;;;;;;;;;72.33;49.67;;;;;6.04;63.37;101213.84;5041442;28;61826;-74
2021/12/23 03:18:32;;;;;;;;;76.00;48.33;;;;;6.04;63.30;101203.41;5042129;28;61824;-74
2021/12/23 03:20:58;;;;;;;;;64.00;48.67;;;;;6.06;63.28;101206.09;5041861;28;62277;-74
2021/12/23 03:23:24;;;;;;;;;61.00;39.00;;;;;6.05;63.32;101201.72;5057372;28;61962;-73
2021/12/23 03:25:49;;;;;;;;;73.67;46.67;;;;;6.05;63.29;101194.78;5041034;28;61952;-74
2021/12/23 03:28:15;;;;;;;;;67.33;45.33;;;;;6.08;63.22;101199.31;5042016;28;61807;-73
2021/12/23 03:30:40;;;;;;;;;50.00;43.00;;;;;6.04;63.09;101194.69;5041893;28;61834;-74
2021/12/23 03:33:06;;;;;;;;;71.67;48.00;;;;;6.05;63.46;101189.59;5041850;28;61767;-73
2021/12/23 03:35:32;;;;;;;;;71.67;44.67;;;;;6.07;63.25;101193.19;5051441;28;62055;-74
2021/12/23 03:37:58;;;;;;;;;66.33;46.67;;;;;6.06;63.05;101186.19;5061823;28;62388;-74
2021/12/23 03:40:26;;;;;;;;;58.33;41.33;;;;;6.02;63.27;101175.44;5065643;28;61920;-73
2021/12/23 03:42:52;;;;;;;;;65.33;47.33;;;;;5.99;62.92;101170.91;5064118;28;62203;-74
2021/12/23 03:45:17;;;;;;;;;70.67;45.33;;;;;5.98;63.24;101173.41;5064926;28;61850;-73
2021/12/23 03:47:48;;;;;;;;;70.67;44.67;;;;;5.95;63.31;101171.50;5065510;28;61868;-74
2021/12/23 03:50:16;;;;;;;;;73.67;49.67;;;;;5.95;63.56;101176.72;5065529;28;61850;-74
2021/12/23 03:52:42;;;;;;;;;56.00;41.67;;;;;5.92;63.23;101173.88;5065160;28;61733;-73
2021/12/23 03:55:08;;;;;;;;;70.33;49.33;;;;;5.95;63.18;101179.31;5063086;28;63846;-74
2021/12/23 03:57:33;;;;;;;;;67.00;45.33;;;;;5.97;63.31;101172.50;5064069;28;61721;-73
2021/12/23 03:59:58;;;;;;;;;67.67;47.33;;;;;5.94;63.85;101165.38;5065179;28;62216;-73
2021/12/23 04:02:24;;;;;;;;;75.33;50.33;;;;;5.90;63.63;101159.84;5065554;28;61764;-73
2021/12/23 04:04:49;;;;;;;;;63.00;46.67;;;;;5.92;63.77;101158.25;5064415;28;61728;-73
2021/12/23 04:07:16;;;;;;;;;71.00;50.00;;;;;5.90;63.80;101152.91;5064793;28;61892;-73
2021/12/23 04:09:42;;;;;;;;;62.67;46.00;;;;;5.90;63.74;101157.22;5063980;28;62100;-73
2021/12/23 04:12:08;;;;;;;;;67.00;44.00;;;;;5.85;63.92;101146.50;5065175;28;62010;-73
2021/12/23 04:14:33;;;;;;;;;68.33;53.00;;;;;5.88;63.56;101148.41;5064632;28;62316;-73
2021/12/23 04:16:58;;;;;;;;;66.33;44.33;;;;;5.89;63.81;101138.09;5064731;28;62192;-73
2021/12/23 04:19:28;;;;;;;;;57.00;43.33;;;;;5.92;63.74;101130.47;5065155;28;61840;-73
2021/12/23 04:21:53;;;;;;;;;57.67;46.00;;;;;5.99;63.44;101131.81;5064682;28;62043;-73
2021/12/23 04:24:19;;;;;;;;;54.00;41.00;;;;;6.01;63.83;101131.94;5064238;28;62030;-73
2021/12/23 04:26:44;;;;;;;;;56.00;46.00;;;;;6.07;63.70;101137.56;5064570;28;61826;-73
2021/12/23 04:29:10;;;;;;;;;58.00;43.00;;;;;6.10;63.61;101127.34;5064730;28;61694;-73
2021/12/23 04:31:35;;;;;;;;;66.00;49.00;;;;;6.08;63.81;101118.50;5065104;28;61785;-73
2021/12/23 04:34:01;;;;;;;;;62.67;46.67;;;;;6.05;63.36;101111.41;5063592;28;61745;-73
2021/12/23 04:36:29;;;;;;;;;62.00;43.00;;;;;6.17;63.71;101123.44;5055983;28;61984;-73
2021/12/23 04:38:55;;;;;;;;;64.33;45.33;;;;;6.14;63.53;101112.00;5059849;28;61867;-73
2021/12/23 04:41:22;;;;;;;;;59.33;47.33;;;;;6.17;63.30;101120.84;5044625;28;61797;-73
2021/12/23 04:43:48;;;;;;;;;66.00;45.67;;;;;6.18;63.14;101117.44;5043878;28;61953;-74
2021/12/23 04:46:13;;;;;;;;;63.67;42.00;;;;;6.20;63.21;101123.66;5042867;28;61996;-73
2021/12/23 04:48:39;;;;;;;;;58.67;44.33;;;;;6.20;63.41;101119.34;5059831;28;61807;-73
2021/12/23 04:51:05;;;;;;;;;62.00;48.33;;;;;6.17;63.50;101110.41;5042745;28;61927;-74
2021/12/23 04:53:30;;;;;;;;;62.00;49.00;;;;;6.19;63.25;101121.84;5043527;28;61785;-73
2021/12/23 04:55:56;;;;;;;;;65.00;42.67;;;;;6.21;63.22;101118.53;5043910;28;61950;-74
2021/12/23 04:58:21;;;;;;;;;62.00;42.00;;;;;6.18;62.94;101110.53;5044305;28;61740;-73
2021/12/23 05:00:49;;;;;;;;;71.00;50.00;;;;;6.19;63.21;101114.03;5042789;28;62218;-73
2021/12/23 05:03:17;;;;;;;;;46.33;40.00;;;;;6.15;63.07;101110.34;5042846;28;61859;-73
2021/12/23 05:05:42;;;;;;;;;63.33;41.67;;;;;6.19;63.23;101114.03;5043914;28;62124;-73
2021/12/23 05:08:08;;;;;;;;;53.33;42.00;;;;;6.21;63.61;101110.72;5043681;28;61752;-73
2021/12/23 05:10:34;;;;;;;;;64.33;49.33;;;;;6.23;63.15;101103.91;5044376;28;61905;-73
2021/12/23 05:13:01;;;;;;;;;65.67;47.67;;;;;6.28;63.63;101097.31;5043185;28;61888;-73
2021/12/23 05:15:27;;;;;;;;;58.33;42.67;;;;;6.29;63.00;101085.19;5043988;28;62302;-73
2021/12/23 05:17:52;;;;;;;;;65.00;48.33;;;;;6.32;63.50;101082.78;5044059;28;61897;-73
2021/12/23 05:20:20;;;;;;;;;67.67;46.00;;;;;6.39;63.23;101079.78;5042503;28;61881;-73
2021/12/23 05:22:46;;;;;;;;;64.67;52.00;;;;;6.39;63.47;101073.66;5043088;28;61936;-73
2021/12/23 05:25:12;;;;;;;;;58.33;44.67;;;;;6.42;63.47;101076.47;5043469;28;61960;-73
2021/12/23 05:27:38;;;;;;;;;57.00;45.67;;;;;6.41;63.40;101075.56;5059479;27;62163;-73
2021/12/23 05:30:06;;;;;;;;;48.67;39.00;;;;;6.42;63.15;101068.63;5043821;28;61816;-73
2021/12/23 05:32:31;;;;;;;;;64.33;47.33;;;;;6.43;63.30;101067.84;5043052;28;61719;-73
2021/12/23 05:34:57;;;;;;;;;60.00;44.67;;;;;6.43;63.05;101066.13;5048618;28;61916;-73
2021/12/23 05:37:23;;;;;;;;;64.00;42.33;;;;;6.42;63.52;101056.50;5063384;28;62070;-73
2021/12/23 05:39:48;;;;;;;;;64.33;44.33;;;;;6.41;63.36;101059.91;5064120;28;62295;-73
2021/12/23 05:42:14;;;;;;;;;57.00;44.00;;;;;6.45;63.31;101063.59;5062642;28;62225;-73
2021/12/23 05:44:39;;;;;;;;;71.33;47.00;;;;;6.43;63.70;101060.03;5063570;28;61821;-73
2021/12/23 05:47:04;;;;;;;;;64.00;46.67;;;;;6.46;63.44;101065.44;5063616;28;62038;-73
2021/12/23 05:49:30;;;;;;;;;62.67;46.33;;;;;6.49;63.49;101063.00;5063506;28;62073;-73
2021/12/23 05:51:56;;;;;;;;;66.67;49.00;;;;;6.50;63.31;101054.41;5061444;28;63463;-74
2021/12/23 05:54:22;;;;;;;;;56.00;42.67;;;;;6.51;63.79;101049.28;5063119;28;61793;-73
2021/12/23 05:56:48;;;;;;;;;64.00;47.00;;;;;6.47;63.71;101046.34;5061846;28;61906;-73
2021/12/23 05:59:14;;;;;;;;;62.00;43.33;;;;;6.46;63.80;101055.91;5063470;28;61820;-73
2021/12/23 06:01:39;;;;;;;;;55.33;45.00;;;;;6.49;63.82;101061.31;5060840;28;63611;-73
2021/12/23 06:04:05;;;;;;;;;65.00;50.33;;;;;6.48;63.54;101046.47;5062952;28;61725;-73
2021/12/23 06:06:36;;;;;;;;;62.33;43.67;;;;;6.46;63.94;101058.50;5063042;28;61980;-73
2021/12/23 06:09:06;;;;;;;;;65.00;45.00;;;;;6.47;63.84;101060.31;5063480;28;61923;-73
2021/12/23 06:11:31;;;;;;;;;63.67;44.00;;;;;6.47;63.91;101056.78;5062729;28;61727;-73
2021/12/23 06:13:56;;;;;;;;;66.67;48.33;;;;;6.47;64.03;101054.19;5063297;28;62160;-73
2021/12/23 06:16:22;;;;;;;;;63.00;47.00;;;;;6.49;63.68;101057.78;5063052;28;62344;-73
2021/12/23 06:18:48;;;;;;;;;62.67;46.33;;;;;6.50;64.19;101060.50;5063103;28;62018;-73
2021/12/23 06:21:13;;;;;;;;;58.00;46.67;;;;;6.48;64.07;101066.44;5062335;28;61993;-73
2021/12/23 06:23:39;;;;;;;;;59.33;42.67;;;;;6.47;63.99;101060.31;5063040;28;62081;-73
2021/12/23 06:26:04;;;;;;;;;70.00;47.33;;;;;6.48;64.42;101063.81;5062708;28;62300;-73
2021/12/23 06:28:30;;;;;;;;;55.67;43.67;;;;;6.50;64.17;101064.81;5061504;28;62015;-73
2021/12/23 06:30:55;;;;;;;;;63.00;49.33;;;;;6.52;64.07;101071.06;5062423;28;62347;-73
2021/12/23 06:33:21;;;;;;;;;64.00;46.67;;;;;6.50;64.03;101067.44;5060737;28;61882;-73
2021/12/23 06:35:46;;;;;;;;;55.00;44.00;;;;;6.52;64.30;101077.16;5060505;28;61815;-73
2021/12/23 06:38:12;;;;;;;;;59.00;44.00;;;;;6.53;64.24;101071.16;5042613;28;61743;-73
2021/12/23 06:40:40;;;;;;;;;55.00;45.67;;;;;6.55;63.93;101077.38;5040567;28;63836;-73
2021/12/23 06:43:07;;;;;;;;;58.67;44.33;;;;;6.54;64.26;101079.88;5042672;28;61897;-73
2021/12/23 06:45:32;;;;;;;;;63.67;45.00;;;;;6.55;64.45;101071.22;5042475;28;62127;-73
2021/12/23 06:47:58;;;;;;;;;52.33;42.33;;;;;6.55;64.46;101072.16;5042419;28;61858;-73
2021/12/23 06:50:23;;;;;;;;;59.33;47.00;;;;;6.49;64.24;101073.44;5041700;28;61848;-73
2021/12/23 06:52:50;;;;;;;;;69.00;48.00;;;;;6.48;64.39;101082.97;5042290;28;61998;-73
2021/12/23 06:55:17;;;;;;;;;60.67;45.67;;;;;6.48;64.36;101069.03;5042361;28;61825;-73
2021/12/23 06:57:43;;;;;;;;;62.33;46.33;;;;;6.52;64.30;101066.72;5042712;28;62002;-73
2021/12/23 07:00:14;;;;;;;;;64.67;48.00;;;;;6.48;64.51;101072.53;5041742;28;62713;-73
2021/12/23 07:02:42;;;;;;;;;71.00;47.00;;;;;6.49;64.81;101078.66;5041783;28;62135;-73
2021/12/23 07:05:08;;;;;;;;;59.67;45.00;;;;;6.54;64.98;101082.47;5042480;28;61808;-72
2021/12/23 07:07:42;;;;;;;;;64.33;49.33;;;;;6.53;64.55;101085.88;5057610;28;62116;-73
2021/12/23 07:10:09;;;;;;;;;62.00;46.00;;;;;6.58;64.99;101086.16;5041826;28;62557;-72
2021/12/23 07:12:34;;;;;;;;;60.33;44.33;;;;;6.57;64.51;101085.28;5040816;28;61798;-72
2021/12/23 07:14:59;;;;;;;;;70.33;47.67;;;;;6.58;64.87;101076.66;5040775;28;61859;-72
2021/12/23 07:17:25;;;;;;;;;70.67;50.33;;;;;6.59;64.73;101078.47;5057432;27;61797;-73
2021/12/23 07:19:50;;;;;;;;;56.33;43.33;;;;;6.62;64.75;101089.09;5041720;28;62779;-72
2021/12/23 07:22:16;;;;;;;;;62.33;44.33;;;;;6.62;64.89;101080.34;5042106;28;62044;-73
2021/12/23 07:24:42;;;;;;;;;69.33;51.00;;;;;6.62;64.81;101091.72;5041928;28;61810;-73
2021/12/23 07:27:09;;;;;;;;;67.67;45.33;;;;;6.63;64.98;101082.19;5042119;28;61959;-72
2021/12/23 07:29:34;;;;;;;;;67.00;52.00;;;;;6.65;64.88;101089.28;5039681;28;65058;-73
2021/12/23 07:32:02;;;;;;;;;71.33;48.33;;;;;6.67;65.10;101097.22;5041601;28;61787;-73
2021/12/23 07:34:28;;;;;;;;;68.67;51.00;;;;;6.67;64.81;101103.34;5041285;28;61802;-73
2021/12/23 07:36:54;;;;;;;;;67.67;46.67;;;;;6.69;65.42;101099.13;5060548;28;61876;-72
2021/12/23 07:39:21;;;;;;;;;53.33;44.67;;;;;6.73;64.63;101097.63;5076781;28;64015;-72
2021/12/23 07:41:46;;;;;;;;;66.33;48.67;;;;;6.75;64.90;101102.13;5061915;28;62050;-74
2021/12/23 07:44:20;;;;;;;;;59.33;46.00;;;;;6.84;64.77;101096.59;5061578;28;61894;-74
2021/12/23 07:46:47;;;;;;;;;73.00;53.00;;;;;6.94;64.72;101100.69;5062000;28;61732;-74
2021/12/23 07:49:12;;;;;;;;;66.00;49.67;;;;;7.00;64.41;101101.09;5060094;28;63740;-75
2021/12/23 07:51:38;;;;;;;;;80.33;56.67;;;;;7.09;64.51;101098.16;5061709;28;61938;-74
2021/12/23 07:54:04;;;;;;;;;75.00;54.33;;;;;7.14;64.06;101091.53;5061768;28;61914;-74
2021/12/23 07:56:29;;;;;;;;;67.00;52.67;;;;;7.17;64.38;101090.00;5061002;28;61695;-73
2021/12/23 07:58:55;;;;;;;;;68.00;50.67;;;;;7.24;63.60;101079.94;5053211;28;63800;-73
2021/12/23 08:01:20;;;;;;;;;70.33;49.67;;;;;7.28;65.01;101082.81;5049875;28;62378;-73
2021/12/23 08:03:46;;;;;;;;;72.33;54.00;;;;;7.36;64.14;101075.50;5051766;28;61806;-74
2021/12/23 08:06:11;;;;;;;;;65.67;47.67;;;;;7.43;64.22;101077.66;5051079;28;62188;-73
2021/12/23 08:08:37;;;;;;;;;54.67;44.67;;;;;7.51;64.08;101083.38;5049202;28;61872;-74
2021/12/23 08:11:02;;;;;;;;;63.67;44.67;;;;;7.55;64.11;101081.03;5048568;28;62143;-73
2021/12/23 08:13:29;;;;;;;;;62.67;48.33;;;;;7.62;63.76;101087.53;5048426;28;61867;-73
2021/12/23 08:15:54;;;;;;;;;63.67;45.33;;;;;7.68;63.29;101076.56;5043930;28;61906;-73
2021/12/23 08:18:20;;;;;;;;;72.33;54.00;;;;;7.73;63.77;101072.50;5050859;28;61789;-73
2021/12/23 08:20:46;;;;;;;;;68.00;50.00;;;;;7.78;63.69;101074.59;5041046;28;61751;-73
2021/12/23 08:23:11;;;;;;;;;70.33;52.33;;;;;7.82;63.91;101075.69;5041204;28;61883;-73
2021/12/23 08:25:37;;;;;;;;;72.67;49.33;;;;;7.88;63.29;101080.38;5052558;28;61747;-74
2021/12/23 08:28:03;;;;;;;;;70.33;51.00;;;;;7.91;63.59;101080.56;5055016;28;61820;-74
2021/12/23 08:30:28;;;;;;;;;75.67;54.00;;;;;7.95;63.57;101067.75;5053764;28;62042;-73
2021/12/23 08:32:54;;;;;;;;;70.00;50.00;;;;;8.02;64.06;101070.75;5070532;28;62509;-73
2021/12/23 08:35:21;;;;;;;;;74.00;49.67;;;;;8.04;63.17;101067.41;5056478;28;61802;-73
2021/12/23 08:37:48;;;;;;;;;65.00;48.67;;;;;8.11;62.96;101073.88;5054560;28;61805;-73
2021/12/23 08:40:24;;;;;;;;;68.00;53.67;;;;;8.15;63.58;101068.94;5053039;28;61722;-73
2021/12/23 08:42:51;;;;;;;;;76.00;52.67;;;;;8.22;63.23;101066.69;5052915;28;62141;-73
2021/12/23 08:45:17;;;;;;;;;67.33;48.33;;;;;8.27;63.17;101067.81;5053017;28;62374;-73
2021/12/23 08:47:43;;;;;;;;;76.33;53.00;;;;;8.31;63.49;101059.34;5051677;28;61858;-74
2021/12/23 08:50:10;;;;;;;;;59.00;47.67;;;;;8.39;63.02;101063.31;5055945;27;62597;-74
2021/12/23 08:52:36;;;;;;;;;68.00;49.33;;;;;8.42;63.68;101063.53;5055837;28;62019;-74
2021/12/23 08:55:04;;;;;;;;;78.33;54.67;;;;;8.49;63.44;101059.56;5044494;28;61984;-74
2021/12/23 08:57:30;;;;;;;;;66.00;52.00;;;;;8.52;63.68;101057.09;5058604;28;63811;-74
2021/12/23 08:59:55;;;;;;;;;58.67;45.00;;;;;8.56;63.16;101057.38;5059412;28;61725;-74
2021/12/23 09:02:21;;;;;;;;;62.67;49.33;;;;;8.59;63.33;101060.16;5044092;28;61885;-74
2021/12/23 09:04:46;;;;;;;;;51.25;40.50;;;;;8.59;63.90;101070.63;5043921;28;61862;-74
2021/12/23 09:07:12;;;;;;;;;63.00;43.00;;;;;8.59;64.19;101072.31;5043502;28;62585;-74
2021/12/23 09:09:38;;;;;;;;;61.75;42.50;;;;;8.59;64.49;101060.16;5048688;28;61938;-74
2021/12/23 09:12:07;;;;;;;;;51.25;42.25;;;;;8.69;64.65;101076.38;5053840;28;61813;-74
2021/12/23 09:14:33;;;;;;;;;65.67;43.67;;;;;8.73;64.57;101066.16;5068843;28;61895;-73
2021/12/23 09:17:00;;;;;;;;;51.00;39.25;;;;;8.80;64.31;101072.63;5051450;28;62837;-73
2021/12/23 09:19:26;;;;;;;;;61.33;44.67;;;;;8.90;63.96;101074.06;5054342;28;61979;-76
2021/12/23 09:21:52;;;;;;;;;57.00;40.75;;;;;8.92;63.93;101073.34;5051324;28;62641;-73
2021/12/23 09:24:19;;;;;;;;;60.00;47.33;;;;;8.98;64.64;101067.56;5051384;28;62051;-74
2021/12/23 09:26:52;;;;;;;;;61.75;43.00;;;;;8.97;63.67;101058.78;5059198;28;62671;-74
2021/12/23 09:34:48;;;;;;;;;58.33;46.67;;;;;9.10;63.93;101056.84;5047384;28;62206;-74
2021/12/23 09:37:14;;;;;;;;;54.25;43.25;;;;;9.13;64.98;101057.00;5060573;28;63808;-74
2021/12/23 09:39:40;;;;;;;;;52.50;43.00;;;;;9.16;64.61;101057.16;5063535;28;61864;-74
2021/12/23 09:42:06;;;;;;;;;60.00;43.25;;;;;9.26;64.61;101055.97;5063171;28;62211;-74
2021/12/23 09:44:32;;;;;;;;;51.50;43.25;;;;;9.30;64.68;101057.94;5063779;28;61704;-74
2021/12/23 09:47:03;;;;;;;;;46.75;40.75;;;;;9.37;64.58;101057.44;5050887;28;62922;-73
2021/12/23 09:49:29;;;;;;;;;53.00;43.25;;;;;9.37;65.29;101047.84;5047144;28;62950;-74
2021/12/23 09:51:56;;;;;;;;;60.50;45.75;;;;;9.47;64.82;101045.69;5048432;28;62281;-74
2021/12/23 09:54:25;;;;;;;;;58.00;42.50;;;;;9.53;64.78;101038.16;5047933;28;62284;-74
2021/12/23 09:56:52;;;;;;;;;62.25;43.25;;;;;9.58;64.95;101041.94;5046183;28;62608;-75
2021/12/23 09:59:18;;;;;;;;;54.25;42.00;;;;;9.61;64.77;101044.72;5065927;28;61809;-74
2021/12/23 10:01:44;;;;;;;;;50.25;39.25;;;;;9.69;65.22;101037.28;5046654;28;61889;-74
2021/12/23 10:04:09;;;;;;;;;60.50;40.25;;;;;9.72;65.54;101046.16;5058589;28;61881;-74
2021/12/23 10:06:35;;;;;;;;;58.25;40.00;;;;;9.74;65.41;101031.41;5057431;28;61822;-73
2021/12/23 10:09:03;;;;;;;;;53.00;39.00;;;;;9.80;65.82;101034.38;5042134;28;61863;-74
2021/12/23 10:11:52;;;;;;;;;49.25;36.50;;;;;9.81;66.07;101037.88;5042910;28;61730;-74
2021/12/23 10:30:09;;;;;;;;;51.75;41.50;;;;;10.15;66.83;101002.88;5041952;28;61691;-74
2021/12/23 10:37:15;;;;;;;;;51.75;41.00;;;;;10.35;67.23;101001.28;5037243;28;61958;-74
2021/12/23 10:39:44;;;;;;;;;42.25;37.75;;;;;10.40;67.00;100997.16;5037542;28;62352;-74
2021/12/23 10:42:11;;;;;;;;;53.75;38.00;;;;;10.48;66.98;100987.91;5039246;28;61789;-74
2021/12/23 10:44:38;;;;;;;;;43.25;35.00;;;;;10.51;67.29;100982.81;5039593;28;62105;-74
2021/12/23 10:47:03;;;;;;;;;53.25;35.50;;;;;10.53;68.13;100983.78;5039468;28;61864;-74
2021/12/23 10:49:40;;;;;;;;;57.75;38.75;;;;;10.47;69.28;100988.72;5038927;28;62191;-74
2021/12/23 10:52:14;;;;;;;;;49.50;37.75;;;;;10.54;69.06;100993.47;5039184;28;61826;-74
2021/12/23 11:00:21;;;;;;;;;45.50;38.50;;;;;10.67;69.15;100968.69;5038946;28;62002;-74
2021/12/23 11:03:29;;;;;;;;;42.00;34.50;;;;;10.78;68.81;100969.19;5022807;28;61665;-74
2021/12/23 11:11:46;;;;;;;;;56.75;34.50;;;;;11.04;68.44;100960.78;5045690;28;62450;-74
2021/12/23 11:28:42;;;;;;;;;45.75;34.00;;;;;11.43;68.58;100976.50;5062256;28;61740;-74
2021/12/23 11:37:37;;;;;;;;;50.00;35.00;;;;;11.46;69.62;100960.88;5061260;28;61781;-74
2021/12/23 11:42:05;;;;;;;;;49.00;39.00;;;;;11.56;70.68;100949.03;5061977;28;61892;-74
2021/12/23 11:44:33;;;;;;;;;37.75;31.75;;;;;11.61;70.83;100946.59;5061082;28;61783;-74
2021/12/23 11:47:07;;;;;;;;;43.50;36.25;;;;;11.60;71.43;100947.44;5061740;28;61969;-74
2021/12/23 11:49:35;;;;;;;;;41.25;34.50;;;;;11.68;71.37;100950.41;5061985;28;61714;-74
2021/12/23 11:52:01;;;;;;;;;41.50;37.00;;;;;11.69;71.41;100946.91;5077176;27;61785;-74
2021/12/23 11:54:31;;;;;;;;;41.00;34.25;;;;;11.77;71.41;100950.78;5060826;28;61845;-74
2021/12/23 11:57:04;;;;;;;;;38.75;30.50;;;;;11.78;71.07;100936.78;5061485;28;61940;-74
2021/12/23 11:59:32;;;;;;;;;39.50;34.25;;;;;11.85;71.18;100933.59;5063028;28;61868;-74
2021/12/23 12:01:58;;;;;;;;;39.50;30.75;;;;;11.91;71.19;100938.22;5065264;28;62006;-74
2021/12/23 12:04:28;;;;;;;;;38.75;33.50;;;;;11.86;71.56;100928.38;5064578;28;61881;-74
2021/12/23 12:06:55;;;;;;;;;35.75;32.00;;;;;11.86;71.53;100927.47;5064930;28;61769;-74
2021/12/23 12:09:27;;;;;;;;;34.75;31.50;;;;;11.91;71.45;100918.09;5064755;28;61705;-74
2021/12/23 12:11:58;;;;;;;;;44.00;35.00;;;;;11.99;71.96;100924.53;5080725;27;62021;-74
2021/12/23 12:14:33;;;;;;;;;42.50;34.75;;;;;12.01;71.76;100912.34;5064329;28;62821;-74
2021/12/23 12:17:25;;;;;;;;;41.25;29.25;;;;;12.07;72.21;100907.34;5064875;28;62130;-74
2021/12/23 12:19:52;;;;;;;;;37.25;28.25;;;;;12.33;71.80;100898.69;5057780;28;62160;-74
2021/12/23 12:22:45;;;;;;;;;37.00;33.25;;;;;12.78;70.62;100894.28;5064783;28;61872;-74